sensor_id;sensor_type;location;lat;lon;timestamp;pressure;altitude;pressure_sealevel;temperature;humidity
63916;BME280;50094;51.356;-0.196;2023-02-20T00:00:20;101894.97;;;28.50;38.94
63916;BME280;50094;51.356;-0.196;2023-02-20T00:02:48;101897.00;;;28.51;38.67
63916;BME280;50094;51.356;-0.196;2023-02-20T00:05:15;101896.29;;;28.58;38.36
63916;BME280;50094;51.356;-0.196;2023-02-20T00:07:43;101893.81;;;28.96;38.30
63916;BME280;50094;51.356;-0.196;2023-02-20T00:10:11;101892.23;;;28.80;37.98
63916;BME280;50094;51.356;-0.196;2023-02-20T00:12:39;101891.32;;;28.93;37.64
63916;BME280;50094;51.356;-0.196;2023-02-20T00:15:08;101890.05;;;28.69;37.59
63916;BME280;50094;51.356;-0.196;2023-02-20T00:17:35;101892.22;;;29.05;37.45
63916;BME280;50094;51.356;-0.196;2023-02-20T00:20:03;101891.33;;;29.03;37.27
63916;BME280;50094;51.356;-0.196;2023-02-20T00:22:31;101890.34;;;29.03;36.95
63916;BME280;50094;51.356;-0.196;2023-02-20T00:24:58;101886.79;;;29.16;37.00
63916;BME280;50094;51.356;-0.196;2023-02-20T00:27:25;101883.41;;;29.67;36.93
63916;BME280;50094;51.356;-0.196;2023-02-20T00:29:52;101877.44;;;29.31;36.84
63916;BME280;50094;51.356;-0.196;2023-02-20T00:32:19;101874.55;;;29.32;36.67
63916;BME280;50094;51.356;-0.196;2023-02-20T00:34:47;101869.51;;;28.92;36.65
63916;BME280;50094;51.356;-0.196;2023-02-20T00:37:14;101867.76;;;29.30;36.49
63916;BME280;50094;51.356;-0.196;2023-02-20T00:39:41;101858.81;;;29.62;36.28
63916;BME280;50094;51.356;-0.196;2023-02-20T00:42:08;101857.04;;;29.63;36.16
63916;BME280;50094;51.356;-0.196;2023-02-20T00:44:35;101851.99;;;29.71;36.02
63916;BME280;50094;51.356;-0.196;2023-02-20T00:47:03;101852.64;;;29.78;35.84
63916;BME280;50094;51.356;-0.196;2023-02-20T00:49:30;101852.06;;;29.87;35.65
63916;BME280;50094;51.356;-0.196;2023-02-20T00:51:57;101847.47;;;29.98;35.40
63916;BME280;50094;51.356;-0.196;2023-02-20T00:54:24;101847.34;;;29.72;35.22
63916;BME280;50094;51.356;-0.196;2023-02-20T00:56:51;101846.95;;;29.86;34.93
63916;BME280;50094;51.356;-0.196;2023-02-20T00:59:18;101843.93;;;29.97;34.63
63916;BME280;50094;51.356;-0.196;2023-02-20T01:01:45;101844.29;;;30.05;34.50
63916;BME280;50094;51.356;-0.196;2023-02-20T01:04:12;101840.36;;;29.98;34.26
63916;BME280;50094;51.356;-0.196;2023-02-20T01:06:39;101838.68;;;30.03;34.08
63916;BME280;50094;51.356;-0.196;2023-02-20T01:09:05;101827.18;;;30.32;33.90
63916;BME280;50094;51.356;-0.196;2023-02-20T01:11:33;101824.19;;;30.20;33.74
63916;BME280;50094;51.356;-0.196;2023-02-20T01:14:01;101824.49;;;30.42;33.59
63916;BME280;50094;51.356;-0.196;2023-02-20T01:16:28;101822.28;;;30.30;33.34
63916;BME280;50094;51.356;-0.196;2023-02-20T01:18:55;101818.82;;;30.60;33.30
63916;BME280;50094;51.356;-0.196;2023-02-20T01:21:22;101820.83;;;30.40;33.21
63916;BME280;50094;51.356;-0.196;2023-02-20T01:23:50;101819.72;;;30.51;33.01
63916;BME280;50094;51.356;-0.196;2023-02-20T01:26:17;101816.11;;;30.54;32.81
63916;BME280;50094;51.356;-0.196;2023-02-20T01:28:44;101816.96;;;30.57;32.80
63916;BME280;50094;51.356;-0.196;2023-02-20T01:31:12;101812.19;;;30.68;32.64
63916;BME280;50094;51.356;-0.196;2023-02-20T01:33:40;101808.03;;;30.63;32.50
63916;BME280;50094;51.356;-0.196;2023-02-20T01:36:08;101798.02;;;30.71;32.48
63916;BME280;50094;51.356;-0.196;2023-02-20T01:38:37;101789.00;;;30.74;32.28
63916;BME280;50094;51.356;-0.196;2023-02-20T01:41:06;101786.21;;;30.75;32.22
63916;BME280;50094;51.356;-0.196;2023-02-20T01:43:33;101786.13;;;30.78;32.14
63916;BME280;50094;51.356;-0.196;2023-02-20T01:47:07;101785.29;;;30.86;31.93
63916;BME280;50094;51.356;-0.196;2023-02-20T01:49:38;101786.67;;;30.86;31.83
63916;BME280;50094;51.356;-0.196;2023-02-20T01:52:11;101782.59;;;30.88;31.78
63916;BME280;50094;51.356;-0.196;2023-02-20T01:54:41;101785.95;;;30.84;31.61
63916;BME280;50094;51.356;-0.196;2023-02-20T01:57:19;101786.36;;;30.91;31.46
63916;BME280;50094;51.356;-0.196;2023-02-20T01:59:48;101786.92;;;30.98;31.30
63916;BME280;50094;51.356;-0.196;2023-02-20T02:02:17;101784.36;;;31.01;31.22
63916;BME280;50094;51.356;-0.196;2023-02-20T02:04:46;101785.36;;;30.49;31.07
63916;BME280;50094;51.356;-0.196;2023-02-20T02:07:14;101790.44;;;31.06;31.04
63916;BME280;50094;51.356;-0.196;2023-02-20T02:09:48;101790.13;;;30.61;30.92
63916;BME280;50094;51.356;-0.196;2023-02-20T02:12:16;101785.81;;;31.13;30.84
63916;BME280;50094;51.356;-0.196;2023-02-20T02:14:44;101776.42;;;30.92;30.75
63916;BME280;50094;51.356;-0.196;2023-02-20T02:17:24;101771.27;;;31.28;30.64
63916;BME280;50094;51.356;-0.196;2023-02-20T02:23:36;101776.90;;;31.25;30.30
63916;BME280;50094;51.356;-0.196;2023-02-20T02:26:22;101773.91;;;31.29;30.19
63916;BME280;50094;51.356;-0.196;2023-02-20T02:29:09;101765.29;;;30.83;29.94
63916;BME280;50094;51.356;-0.196;2023-02-20T02:32:00;101772.22;;;30.89;29.92
63916;BME280;50094;51.356;-0.196;2023-02-20T02:34:52;101768.49;;;30.93;29.78
63916;BME280;50094;51.356;-0.196;2023-02-20T02:37:29;101761.40;;;31.46;29.62
63916;BME280;50094;51.356;-0.196;2023-02-20T02:40:03;101758.23;;;31.45;29.52
63916;BME280;50094;51.356;-0.196;2023-02-20T02:42:39;101757.18;;;31.25;29.47
63916;BME280;50094;51.356;-0.196;2023-02-20T02:45:13;101756.47;;;31.25;29.41
63916;BME280;50094;51.356;-0.196;2023-02-20T02:47:48;101749.17;;;31.02;29.33
63916;BME280;50094;51.356;-0.196;2023-02-20T02:50:21;101749.36;;;31.06;29.22
63916;BME280;50094;51.356;-0.196;2023-02-20T02:52:50;101749.74;;;30.98;29.23
63916;BME280;50094;51.356;-0.196;2023-02-20T02:55:21;101739.03;;;31.09;29.09
63916;BME280;50094;51.356;-0.196;2023-02-20T02:57:50;101740.50;;;31.42;28.97
63916;BME280;50094;51.356;-0.196;2023-02-20T03:00:21;101736.97;;;31.64;28.88
63916;BME280;50094;51.356;-0.196;2023-02-20T03:02:54;101734.12;;;31.60;28.80
63916;BME280;50094;51.356;-0.196;2023-02-20T03:05:26;101733.95;;;31.42;28.69
63916;BME280;50094;51.356;-0.196;2023-02-20T03:07:57;101736.82;;;31.18;28.62
63916;BME280;50094;51.356;-0.196;2023-02-20T03:10:25;101732.38;;;31.22;28.58
63916;BME280;50094;51.356;-0.196;2023-02-20T03:12:53;101733.21;;;31.25;28.45
63916;BME280;50094;51.356;-0.196;2023-02-20T03:15:25;101731.44;;;31.40;28.36
63916;BME280;50094;51.356;-0.196;2023-02-20T03:18:00;101729.68;;;31.17;28.26
63916;BME280;50094;51.356;-0.196;2023-02-20T03:20:30;101730.05;;;31.51;28.23
63916;BME280;50094;51.356;-0.196;2023-02-20T03:22:58;101735.19;;;31.33;28.07
63916;BME280;50094;51.356;-0.196;2023-02-20T03:25:32;101732.36;;;31.45;27.95
63916;BME280;50094;51.356;-0.196;2023-02-20T03:28:01;101733.26;;;31.41;27.92
63916;BME280;50094;51.356;-0.196;2023-02-20T03:30:32;101735.35;;;31.42;27.82
63916;BME280;50094;51.356;-0.196;2023-02-20T03:33:03;101731.37;;;31.39;27.80
63916;BME280;50094;51.356;-0.196;2023-02-20T03:35:33;101735.80;;;31.43;27.67
63916;BME280;50094;51.356;-0.196;2023-02-20T03:38:03;101733.37;;;31.39;27.63
63916;BME280;50094;51.356;-0.196;2023-02-20T03:40:33;101729.22;;;31.38;27.46
63916;BME280;50094;51.356;-0.196;2023-02-20T03:43:04;101729.32;;;31.37;27.39
63916;BME280;50094;51.356;-0.196;2023-02-20T03:45:36;101730.69;;;31.38;27.31
63916;BME280;50094;51.356;-0.196;2023-02-20T03:48:09;101732.05;;;31.34;27.29
63916;BME280;50094;51.356;-0.196;2023-02-20T03:50:38;101727.51;;;31.44;27.25
63916;BME280;50094;51.356;-0.196;2023-02-20T03:53:05;101729.15;;;31.43;27.21
63916;BME280;50094;51.356;-0.196;2023-02-20T03:55:33;101731.98;;;31.52;27.11
63916;BME280;50094;51.356;-0.196;2023-02-20T03:58:03;101734.05;;;31.60;26.96
63916;BME280;50094;51.356;-0.196;2023-02-20T04:00:35;101735.05;;;31.56;26.93
63916;BME280;50094;51.356;-0.196;2023-02-20T04:03:08;101735.14;;;31.62;26.85
63916;BME280;50094;51.356;-0.196;2023-02-20T04:05:41;101730.51;;;31.56;26.81
63916;BME280;50094;51.356;-0.196;2023-02-20T04:08:13;101734.18;;;31.64;26.72
63916;BME280;50094;51.356;-0.196;2023-02-20T04:10:48;101741.59;;;31.64;26.68
63916;BME280;50094;51.356;-0.196;2023-02-20T04:13:19;101737.79;;;31.58;26.56
63916;BME280;50094;51.356;-0.196;2023-02-20T04:15:47;101736.15;;;31.66;26.48
63916;BME280;50094;51.356;-0.196;2023-02-20T04:18:17;101744.43;;;31.71;26.46
63916;BME280;50094;51.356;-0.196;2023-02-20T04:20:47;101745.87;;;31.66;26.37
63916;BME280;50094;51.356;-0.196;2023-02-20T04:23:17;101736.90;;;31.61;26.44
63916;BME280;50094;51.356;-0.196;2023-02-20T04:25:48;101745.27;;;31.67;26.21
63916;BME280;50094;51.356;-0.196;2023-02-20T04:28:18;101748.38;;;31.77;26.21
63916;BME280;50094;51.356;-0.196;2023-02-20T04:30:45;101739.21;;;31.77;26.13
63916;BME280;50094;51.356;-0.196;2023-02-20T04:33:13;101735.50;;;31.50;26.15
63916;BME280;50094;51.356;-0.196;2023-02-20T04:35:41;101739.99;;;31.63;26.07
63916;BME280;50094;51.356;-0.196;2023-02-20T04:38:09;101739.98;;;31.67;26.06
63916;BME280;50094;51.356;-0.196;2023-02-20T04:40:37;101740.11;;;31.92;26.02
63916;BME280;50094;51.356;-0.196;2023-02-20T04:43:04;101744.13;;;31.73;25.97
63916;BME280;50094;51.356;-0.196;2023-02-20T04:45:32;101744.64;;;31.94;25.97
63916;BME280;50094;51.356;-0.196;2023-02-20T04:47:59;101749.62;;;31.79;25.88
63916;BME280;50094;51.356;-0.196;2023-02-20T04:50:29;101749.42;;;32.02;25.89
63916;BME280;50094;51.356;-0.196;2023-02-20T04:52:58;101748.98;;;32.08;25.86
63916;BME280;50094;51.356;-0.196;2023-02-20T04:55:26;101745.03;;;32.09;25.83
63916;BME280;50094;51.356;-0.196;2023-02-20T04:57:53;101746.50;;;32.08;25.70
63916;BME280;50094;51.356;-0.196;2023-02-20T05:00:21;101746.28;;;32.07;25.73
63916;BME280;50094;51.356;-0.196;2023-02-20T05:02:49;101747.71;;;32.10;25.65
63916;BME280;50094;51.356;-0.196;2023-02-20T05:05:19;101752.20;;;32.04;25.62
63916;BME280;50094;51.356;-0.196;2023-02-20T05:07:47;101748.68;;;31.85;25.59
63916;BME280;50094;51.356;-0.196;2023-02-20T05:10:15;101753.51;;;31.84;25.63
63916;BME280;50094;51.356;-0.196;2023-02-20T05:12:43;101753.60;;;31.87;25.52
63916;BME280;50094;51.356;-0.196;2023-02-20T05:15:10;101752.65;;;32.08;25.41
63916;BME280;50094;51.356;-0.196;2023-02-20T05:17:37;101756.05;;;32.10;25.37
63916;BME280;50094;51.356;-0.196;2023-02-20T05:20:06;101762.34;;;31.95;25.26
63916;BME280;50094;51.356;-0.196;2023-02-20T05:22:33;101762.78;;;31.99;25.23
63916;BME280;50094;51.356;-0.196;2023-02-20T05:25:01;101759.23;;;32.17;25.13
63916;BME280;50094;51.356;-0.196;2023-02-20T05:27:28;101760.88;;;32.12;25.08
63916;BME280;50094;51.356;-0.196;2023-02-20T05:29:57;101758.76;;;32.12;25.02
63916;BME280;50094;51.356;-0.196;2023-02-20T05:32:27;101761.30;;;31.94;24.96
63916;BME280;50094;51.356;-0.196;2023-02-20T05:34:55;101761.31;;;32.18;24.91
63916;BME280;50094;51.356;-0.196;2023-02-20T05:37:24;101761.91;;;32.16;24.78
63916;BME280;50094;51.356;-0.196;2023-02-20T05:39:52;101760.42;;;32.16;24.83
63916;BME280;50094;51.356;-0.196;2023-02-20T05:42:20;101759.48;;;32.23;24.71
63916;BME280;50094;51.356;-0.196;2023-02-20T05:44:47;101765.16;;;32.21;24.75
63916;BME280;50094;51.356;-0.196;2023-02-20T05:47:15;101763.32;;;32.27;24.64
63916;BME280;50094;51.356;-0.196;2023-02-20T05:49:42;101762.79;;;31.99;24.72
63916;BME280;50094;51.356;-0.196;2023-02-20T05:52:11;101765.37;;;32.04;24.74
63916;BME280;50094;51.356;-0.196;2023-02-20T05:54:39;101756.54;;;32.36;24.76
63916;BME280;50094;51.356;-0.196;2023-02-20T05:57:07;101752.37;;;32.17;24.84
63916;BME280;50094;51.356;-0.196;2023-02-20T05:59:36;101752.90;;;32.40;24.82
63916;BME280;50094;51.356;-0.196;2023-02-20T06:02:03;101747.21;;;32.22;24.80
63916;BME280;50094;51.356;-0.196;2023-02-20T06:04:30;101747.69;;;31.97;24.73
63916;BME280;50094;51.356;-0.196;2023-02-20T06:06:58;101743.96;;;32.30;24.68
63916;BME280;50094;51.356;-0.196;2023-02-20T06:09:25;101736.51;;;32.38;24.67
63916;BME280;50094;51.356;-0.196;2023-02-20T06:11:55;101731.28;;;32.09;24.80
63916;BME280;50094;51.356;-0.196;2023-02-20T06:14:24;101736.34;;;32.46;24.71
63916;BME280;50094;51.356;-0.196;2023-02-20T06:16:52;101743.89;;;32.26;24.71
63916;BME280;50094;51.356;-0.196;2023-02-20T06:19:20;101741.12;;;32.57;24.68
63916;BME280;50094;51.356;-0.196;2023-02-20T06:21:47;101742.74;;;32.29;24.66
63916;BME280;50094;51.356;-0.196;2023-02-20T06:24:15;101744.89;;;32.60;24.57
63916;BME280;50094;51.356;-0.196;2023-02-20T06:26:43;101744.67;;;32.39;24.55
63916;BME280;50094;51.356;-0.196;2023-02-20T06:29:10;101743.52;;;32.42;24.49
63916;BME280;50094;51.356;-0.196;2023-02-20T06:31:38;101740.41;;;32.46;24.42
63916;BME280;50094;51.356;-0.196;2023-02-20T06:34:06;101739.02;;;32.40;24.48
63916;BME280;50094;51.356;-0.196;2023-02-20T06:36:35;101735.30;;;32.63;24.18
63916;BME280;50094;51.356;-0.196;2023-02-20T06:39:04;101729.04;;;32.22;24.01
63916;BME280;50094;51.356;-0.196;2023-02-20T06:41:31;101729.76;;;32.43;23.79
63916;BME280;50094;51.356;-0.196;2023-02-20T06:43:59;101730.02;;;32.24;23.46
63916;BME280;50094;51.356;-0.196;2023-02-20T06:46:27;101734.56;;;31.81;23.62
63916;BME280;50094;51.356;-0.196;2023-02-20T06:48:56;101734.42;;;31.44;23.65
63916;BME280;50094;51.356;-0.196;2023-02-20T06:51:29;101732.06;;;31.07;23.67
63916;BME280;50094;51.356;-0.196;2023-02-20T06:53:57;101740.94;;;30.78;23.54
63916;BME280;50094;51.356;-0.196;2023-02-20T06:56:26;101741.01;;;30.95;23.59
63916;BME280;50094;51.356;-0.196;2023-02-20T06:58:55;101739.83;;;30.70;23.51
63916;BME280;50094;51.356;-0.196;2023-02-20T07:01:24;101746.14;;;30.65;23.58
63916;BME280;50094;51.356;-0.196;2023-02-20T07:03:52;101744.87;;;30.19;23.75
63916;BME280;50094;51.356;-0.196;2023-02-20T07:06:20;101740.93;;;30.46;23.87
63916;BME280;50094;51.356;-0.196;2023-02-20T07:08:47;101741.91;;;29.96;23.90
63916;BME280;50094;51.356;-0.196;2023-02-20T07:11:16;101738.84;;;29.77;24.00
63916;BME280;50094;51.356;-0.196;2023-02-20T07:13:43;101737.51;;;29.60;24.13
63916;BME280;50094;51.356;-0.196;2023-02-20T07:16:09;101741.57;;;29.47;24.18
63916;BME280;50094;51.356;-0.196;2023-02-20T07:18:37;101740.72;;;29.29;24.30
63916;BME280;50094;51.356;-0.196;2023-02-20T07:21:05;101741.17;;;29.40;24.44
63916;BME280;50094;51.356;-0.196;2023-02-20T07:23:32;101741.60;;;29.27;24.49
63916;BME280;50094;51.356;-0.196;2023-02-20T07:26:00;101737.37;;;29.17;24.56
63916;BME280;50094;51.356;-0.196;2023-02-20T07:28:27;101731.55;;;29.48;24.61
63916;BME280;50094;51.356;-0.196;2023-02-20T07:30:55;101725.60;;;29.06;24.63
63916;BME280;50094;51.356;-0.196;2023-02-20T07:33:23;101721.27;;;28.69;24.69
63916;BME280;50094;51.356;-0.196;2023-02-20T07:35:50;101725.65;;;28.86;24.76
63916;BME280;50094;51.356;-0.196;2023-02-20T07:38:18;101718.72;;;28.73;24.84
63916;BME280;50094;51.356;-0.196;2023-02-20T07:40:46;101714.43;;;28.88;24.92
63916;BME280;50094;51.356;-0.196;2023-02-20T07:43:13;101713.07;;;28.53;24.98
63916;BME280;50094;51.356;-0.196;2023-02-20T07:45:41;101714.91;;;28.71;24.99
63916;BME280;50094;51.356;-0.196;2023-02-20T07:48:08;101722.17;;;28.62;25.05
63916;BME280;50094;51.356;-0.196;2023-02-20T07:50:35;101719.64;;;28.55;25.00
63916;BME280;50094;51.356;-0.196;2023-02-20T07:53:03;101721.10;;;28.17;25.05
63916;BME280;50094;51.356;-0.196;2023-02-20T07:55:30;101713.09;;;28.58;25.14
63916;BME280;50094;51.356;-0.196;2023-02-20T07:57:58;101714.09;;;28.48;25.21
63916;BME280;50094;51.356;-0.196;2023-02-20T08:00:26;101719.89;;;28.13;25.24
63916;BME280;50094;51.356;-0.196;2023-02-20T08:02:53;101721.73;;;28.09;25.20
63916;BME280;50094;51.356;-0.196;2023-02-20T08:05:21;101718.68;;;28.30;25.26
63916;BME280;50094;51.356;-0.196;2023-02-20T08:07:49;101715.30;;;28.02;25.32
63916;BME280;50094;51.356;-0.196;2023-02-20T08:10:19;101713.45;;;27.95;25.30
63916;BME280;50094;51.356;-0.196;2023-02-20T08:12:49;101711.23;;;28.39;25.27
63916;BME280;50094;51.356;-0.196;2023-02-20T08:15:17;101717.34;;;28.09;25.26
63916;BME280;50094;51.356;-0.196;2023-02-20T08:17:44;101722.14;;;28.03;25.36
63916;BME280;50094;51.356;-0.196;2023-02-20T08:20:13;101730.54;;;28.00;25.32
63916;BME280;50094;51.356;-0.196;2023-02-20T08:22:42;101740.66;;;27.96;25.27
63916;BME280;50094;51.356;-0.196;2023-02-20T08:25:09;101749.99;;;27.87;25.29
63916;BME280;50094;51.356;-0.196;2023-02-20T08:27:41;101752.10;;;28.05;25.27
63916;BME280;50094;51.356;-0.196;2023-02-20T08:30:10;101752.46;;;27.45;25.35
63916;BME280;50094;51.356;-0.196;2023-02-20T08:32:38;101754.26;;;27.96;25.27
63916;BME280;50094;51.356;-0.196;2023-02-20T08:35:05;101756.88;;;27.63;25.35
63916;BME280;50094;51.356;-0.196;2023-02-20T08:37:32;101756.92;;;27.66;25.32
63916;BME280;50094;51.356;-0.196;2023-02-20T08:40:00;101766.38;;;27.82;25.31
63916;BME280;50094;51.356;-0.196;2023-02-20T08:42:28;101769.42;;;27.56;25.26
63916;BME280;50094;51.356;-0.196;2023-02-20T08:44:55;101775.48;;;27.44;25.35
63916;BME280;50094;51.356;-0.196;2023-02-20T08:47:22;101782.35;;;27.66;25.36
63916;BME280;50094;51.356;-0.196;2023-02-20T08:49:50;101788.16;;;27.63;25.31
63916;BME280;50094;51.356;-0.196;2023-02-20T08:52:18;101779.67;;;27.50;25.40
63916;BME280;50094;51.356;-0.196;2023-02-20T08:54:46;101776.22;;;27.48;25.39
63916;BME280;50094;51.356;-0.196;2023-02-20T08:57:13;101779.44;;;27.42;25.44
63916;BME280;50094;51.356;-0.196;2023-02-20T08:59:40;101780.96;;;27.39;25.45
63916;BME280;50094;51.356;-0.196;2023-02-20T09:02:15;101777.82;;;27.12;25.46
63916;BME280;50094;51.356;-0.196;2023-02-20T09:04:43;101769.09;;;27.07;25.50
63916;BME280;50094;51.356;-0.196;2023-02-20T09:07:11;101764.89;;;27.25;25.52
63916;BME280;50094;51.356;-0.196;2023-02-20T09:09:39;101769.86;;;27.00;25.52
63916;BME280;50094;51.356;-0.196;2023-02-20T09:12:07;101776.01;;;27.14;25.61
63916;BME280;50094;51.356;-0.196;2023-02-20T09:14:35;101768.23;;;26.88;25.64
63916;BME280;50094;51.356;-0.196;2023-02-20T09:17:03;101757.70;;;26.90;25.64
63916;BME280;50094;51.356;-0.196;2023-02-20T09:19:32;101752.19;;;26.88;25.63
63916;BME280;50094;51.356;-0.196;2023-02-20T09:21:59;101754.99;;;27.06;25.64
63916;BME280;50094;51.356;-0.196;2023-02-20T09:24:27;101751.68;;;27.02;25.71
63916;BME280;50094;51.356;-0.196;2023-02-20T09:26:54;101747.12;;;27.05;25.71
63916;BME280;50094;51.356;-0.196;2023-02-20T09:29:21;101764.03;;;27.07;25.69
63916;BME280;50094;51.356;-0.196;2023-02-20T09:31:48;101761.43;;;27.05;25.69
63916;BME280;50094;51.356;-0.196;2023-02-20T09:34:15;101765.24;;;27.03;25.71
63916;BME280;50094;51.356;-0.196;2023-02-20T09:36:43;101760.45;;;26.99;25.77
63916;BME280;50094;51.356;-0.196;2023-02-20T09:39:10;101764.81;;;26.99;25.76
63916;BME280;50094;51.356;-0.196;2023-02-20T09:41:49;101764.96;;;26.91;25.84
63916;BME280;50094;51.356;-0.196;2023-02-20T09:44:25;101762.12;;;26.72;25.83
63916;BME280;50094;51.356;-0.196;2023-02-20T09:46:56;101758.86;;;27.14;25.91
63916;BME280;50094;51.356;-0.196;2023-02-20T09:49:30;101749.92;;;26.83;25.97
63916;BME280;50094;51.356;-0.196;2023-02-20T09:52:00;101750.17;;;26.93;25.88
63916;BME280;50094;51.356;-0.196;2023-02-20T09:54:31;101746.16;;;26.88;25.88
63916;BME280;50094;51.356;-0.196;2023-02-20T09:57:01;101748.45;;;26.86;25.84
63916;BME280;50094;51.356;-0.196;2023-02-20T09:59:33;101751.38;;;26.82;25.84
63916;BME280;50094;51.356;-0.196;2023-02-20T10:02:11;101748.60;;;26.82;25.84
63916;BME280;50094;51.356;-0.196;2023-02-20T10:04:43;101748.66;;;26.80;25.81
63916;BME280;50094;51.356;-0.196;2023-02-20T10:07:15;101739.23;;;27.05;25.79
63916;BME280;50094;51.356;-0.196;2023-02-20T10:09:47;101738.83;;;26.76;25.77
63916;BME280;50094;51.356;-0.196;2023-02-20T10:12:21;101737.51;;;26.74;25.74
63916;BME280;50094;51.356;-0.196;2023-02-20T10:15:02;101740.00;;;26.65;25.79
63916;BME280;50094;51.356;-0.196;2023-02-20T10:17:40;101741.76;;;26.63;25.83
63916;BME280;50094;51.356;-0.196;2023-02-20T10:20:14;101745.00;;;27.00;25.38
63916;BME280;50094;51.356;-0.196;2023-02-20T10:22:50;101749.04;;;26.55;25.24
63916;BME280;50094;51.356;-0.196;2023-02-20T10:25:25;101745.62;;;25.90;25.38
63916;BME280;50094;51.356;-0.196;2023-02-20T10:27:59;101736.81;;;25.66;25.65
63916;BME280;50094;51.356;-0.196;2023-02-20T10:30:31;101729.89;;;25.31;25.97
63916;BME280;50094;51.356;-0.196;2023-02-20T10:33:09;101735.96;;;25.09;26.25
63916;BME280;50094;51.356;-0.196;2023-02-20T10:35:41;101729.93;;;25.21;26.53
63916;BME280;50094;51.356;-0.196;2023-02-20T10:38:14;101731.48;;;24.98;26.69
63916;BME280;50094;51.356;-0.196;2023-02-20T10:40:47;101724.84;;;25.22;26.83
63916;BME280;50094;51.356;-0.196;2023-02-20T10:43:21;101730.93;;;24.98;26.93
63916;BME280;50094;51.356;-0.196;2023-02-20T10:45:54;101720.32;;;25.26;26.96
63916;BME280;50094;51.356;-0.196;2023-02-20T10:48:28;101713.29;;;24.98;27.00
63916;BME280;50094;51.356;-0.196;2023-02-20T10:51:03;101725.55;;;25.30;27.02
63916;BME280;50094;51.356;-0.196;2023-02-20T10:53:37;101728.47;;;25.09;27.03
63916;BME280;50094;51.356;-0.196;2023-02-20T10:56:09;101720.57;;;25.14;27.04
63916;BME280;50094;51.356;-0.196;2023-02-20T10:58:41;101715.67;;;25.19;27.06
63916;BME280;50094;51.356;-0.196;2023-02-20T11:01:14;101710.48;;;25.53;27.06
63916;BME280;50094;51.356;-0.196;2023-02-20T11:03:47;101703.19;;;25.32;27.02
63916;BME280;50094;51.356;-0.196;2023-02-20T11:06:19;101697.91;;;25.33;27.02
63916;BME280;50094;51.356;-0.196;2023-02-20T11:08:47;101694.21;;;25.36;27.02
63916;BME280;50094;51.356;-0.196;2023-02-20T11:11:27;101701.58;;;25.14;27.04
63916;BME280;50094;51.356;-0.196;2023-02-20T11:13:58;101707.06;;;25.41;27.03
63916;BME280;50094;51.356;-0.196;2023-02-20T11:16:29;101705.35;;;25.47;27.02
63916;BME280;50094;51.356;-0.196;2023-02-20T11:19:06;101690.86;;;25.49;27.01
63916;BME280;50094;51.356;-0.196;2023-02-20T11:21:37;101693.12;;;25.31;26.99
63916;BME280;50094;51.356;-0.196;2023-02-20T11:24:28;101700.56;;;25.33;26.99
63916;BME280;50094;51.356;-0.196;2023-02-20T11:26:59;101694.32;;;25.86;26.94
63916;BME280;50094;51.356;-0.196;2023-02-20T11:29:34;101706.63;;;25.60;26.92
63916;BME280;50094;51.356;-0.196;2023-02-20T11:32:27;101707.05;;;25.36;26.93
63916;BME280;50094;51.356;-0.196;2023-02-20T11:35:15;101702.92;;;25.40;26.95
63916;BME280;50094;51.356;-0.196;2023-02-20T11:37:48;101698.06;;;25.42;26.93
63916;BME280;50094;51.356;-0.196;2023-02-20T11:40:19;101691.45;;;25.39;26.94
63916;BME280;50094;51.356;-0.196;2023-02-20T11:42:47;101682.95;;;25.40;26.94
63916;BME280;50094;51.356;-0.196;2023-02-20T11:45:16;101680.03;;;25.41;26.94
63916;BME280;50094;51.356;-0.196;2023-02-20T11:47:43;101684.93;;;25.42;26.90
63916;BME280;50094;51.356;-0.196;2023-02-20T11:50:14;101683.21;;;25.42;26.89
63916;BME280;50094;51.356;-0.196;2023-02-20T11:53:00;101677.66;;;25.63;26.88
63916;BME280;50094;51.356;-0.196;2023-02-20T11:55:27;101679.95;;;25.43;26.89
63916;BME280;50094;51.356;-0.196;2023-02-20T11:57:54;101678.64;;;25.64;26.91
63916;BME280;50094;51.356;-0.196;2023-02-20T12:00:23;101677.88;;;25.45;26.92
63916;BME280;50094;51.356;-0.196;2023-02-20T12:02:54;101675.19;;;25.68;26.91
63916;BME280;50094;51.356;-0.196;2023-02-20T12:05:35;101671.61;;;25.47;26.88
63916;BME280;50094;51.356;-0.196;2023-02-20T12:08:21;101674.97;;;25.66;26.85
63916;BME280;50094;51.356;-0.196;2023-02-20T12:10:56;101668.32;;;25.48;26.85
63916;BME280;50094;51.356;-0.196;2023-02-20T12:14:46;101663.07;;;25.71;26.93
63916;BME280;50094;51.356;-0.196;2023-02-20T12:17:20;101652.37;;;25.43;26.90
63916;BME280;50094;51.356;-0.196;2023-02-20T12:19:56;101652.08;;;25.58;26.90
63916;BME280;50094;51.356;-0.196;2023-02-20T12:22:32;101643.05;;;25.32;26.88
63916;BME280;50094;51.356;-0.196;2023-02-20T12:25:14;101631.50;;;25.49;26.91
63916;BME280;50094;51.356;-0.196;2023-02-20T12:27:59;101625.80;;;25.47;26.93
63916;BME280;50094;51.356;-0.196;2023-02-20T12:30:42;101638.60;;;25.44;26.95
63916;BME280;50094;51.356;-0.196;2023-02-20T12:33:38;101647.50;;;25.41;26.97
63916;BME280;50094;51.356;-0.196;2023-02-20T12:36:13;101645.20;;;25.21;26.97
63916;BME280;50094;51.356;-0.196;2023-02-20T12:38:48;101641.01;;;25.41;27.01
63916;BME280;50094;51.356;-0.196;2023-02-20T12:41:28;101640.91;;;25.16;27.04
63916;BME280;50094;51.356;-0.196;2023-02-20T12:44:09;101639.56;;;25.37;27.08
63916;BME280;50094;51.356;-0.196;2023-02-20T12:46:48;101633.44;;;25.35;27.10
63916;BME280;50094;51.356;-0.196;2023-02-20T12:49:34;101622.62;;;25.33;27.10
63916;BME280;50094;51.356;-0.196;2023-02-20T12:52:24;101621.55;;;25.32;27.12
63916;BME280;50094;51.356;-0.196;2023-02-20T12:54:59;101625.81;;;25.57;27.15
63916;BME280;50094;51.356;-0.196;2023-02-20T12:57:42;101619.28;;;25.29;27.15
63916;BME280;50094;51.356;-0.196;2023-02-20T13:00:31;101615.57;;;25.28;27.16
63916;BME280;50094;51.356;-0.196;2023-02-20T13:03:05;101613.47;;;25.07;27.18